createdAt,value
2018-02-16T00:00:03.410Z,1.59
2018-02-16T00:02:32.309Z,1.56
2018-02-16T00:05:01.407Z,1.52
2018-02-16T00:07:30.542Z,1.50
2018-02-16T00:09:59.810Z,1.47
2018-02-16T00:12:29.821Z,1.43
2018-02-16T00:14:58.848Z,1.45
2018-02-16T00:17:27.940Z,1.48
2018-02-16T00:19:57.118Z,1.45
2018-02-16T00:22:26.198Z,1.41
2018-02-16T00:24:55.299Z,1.38
2018-02-16T00:27:25.933Z,1.33
2018-02-16T00:29:55.063Z,1.30
2018-02-16T00:32:24.020Z,1.29
2018-02-16T00:34:53.982Z,1.29
2018-02-16T00:37:23.134Z,1.27
2018-02-16T00:39:52.232Z,1.29
2018-02-16T00:42:23.680Z,1.32
2018-02-16T00:44:52.777Z,1.33
2018-02-16T00:47:21.771Z,1.29
2018-02-16T00:49:51.705Z,1.30
2018-02-16T00:52:20.687Z,1.29
2018-02-16T00:54:50.715Z,1.31
2018-02-16T00:57:21.734Z,1.25
2018-02-16T00:59:51.108Z,1.26
2018-02-16T01:02:23.494Z,1.34
2018-02-16T01:04:52.510Z,1.30
2018-02-16T01:07:21.607Z,1.32
2018-02-16T01:09:51.956Z,1.34
2018-02-16T01:12:20.929Z,1.38
2018-02-16T01:14:50.725Z,1.40
2018-02-16T01:17:25.064Z,1.46
2018-02-16T01:19:54.029Z,1.45
2018-02-16T01:22:24.196Z,1.48
2018-02-16T01:24:55.388Z,1.52
2018-02-16T01:27:24.655Z,1.50
2018-02-16T01:29:53.576Z,1.51
2018-02-16T01:32:23.735Z,1.47
2018-02-16T01:34:52.725Z,1.46
2018-02-16T01:37:21.923Z,1.47
2018-02-16T01:39:51.224Z,1.47
2018-02-16T01:42:20.217Z,1.48
2018-02-16T01:44:49.212Z,1.47
2018-02-16T01:47:19.065Z,1.43
2018-02-16T01:50:00.730Z,1.45
2018-02-16T01:52:31.453Z,1.48
2018-02-16T01:55:00.542Z,1.49
2018-02-16T01:57:30.305Z,1.49
2018-02-16T01:59:59.594Z,1.46
2018-02-16T02:02:30.346Z,1.45
2018-02-16T02:04:59.331Z,1.34
2018-02-16T02:07:28.999Z,1.33
2018-02-16T02:09:58.299Z,1.40
2018-02-16T02:12:27.554Z,1.42
2018-02-16T02:14:57.367Z,1.45
2018-02-16T02:17:26.299Z,1.53
2018-02-16T02:19:55.401Z,1.49
2018-02-16T02:22:24.600Z,1.56
2018-02-16T02:24:53.495Z,1.54
2018-02-16T02:27:22.676Z,1.61
2018-02-16T02:29:54.344Z,1.63
2018-02-16T02:32:23.450Z,1.65
2018-02-16T02:34:52.438Z,1.71
2018-02-16T02:37:23.207Z,1.68
2018-02-16T02:39:52.268Z,1.69
2018-02-16T02:42:21.266Z,1.68
2018-02-16T02:44:54.972Z,1.69
2018-02-16T02:47:23.974Z,1.69
2018-02-16T02:49:55.812Z,1.69
2018-02-16T02:52:24.844Z,1.74
2018-02-16T02:54:53.912Z,1.65
2018-02-16T02:57:23.071Z,1.70
2018-02-16T02:59:52.129Z,1.64
2018-02-16T03:02:21.097Z,1.65
2018-02-16T03:04:51.717Z,1.72
2018-02-16T03:07:20.734Z,1.69
2018-02-16T03:09:49.918Z,1.77
2018-02-16T03:12:19.030Z,1.80
2018-02-16T03:14:47.944Z,1.78
2018-02-16T03:17:17.140Z,1.81
2018-02-16T03:19:49.098Z,1.91
2018-02-16T03:22:18.064Z,1.96
2018-02-16T03:24:47.054Z,1.93
2018-02-16T03:27:16.256Z,1.94
2018-02-16T03:29:45.475Z,1.97
2018-02-16T03:32:14.374Z,1.95
2018-02-16T03:34:43.390Z,1.93
2018-02-16T03:37:12.482Z,1.93
2018-02-16T03:39:42.503Z,1.97
2018-02-16T03:42:12.377Z,1.93
2018-02-16T03:44:41.298Z,1.96
2018-02-16T03:47:10.354Z,1.98
2018-02-16T03:49:43.855Z,1.98
2018-02-16T03:52:12.954Z,2.00
2018-02-16T03:54:42.099Z,2.00
2018-02-16T03:57:11.570Z,2.01
2018-02-16T03:59:40.546Z,1.97
2018-02-16T04:02:10.050Z,2.02
2018-02-16T04:04:38.989Z,2.02
2018-02-16T04:07:09.373Z,2.02
2018-02-16T04:09:38.395Z,2.01
2018-02-16T04:12:07.574Z,2.01
2018-02-16T04:14:36.594Z,2.03
2018-02-16T04:17:05.590Z,2.05
2018-02-16T04:19:35.356Z,2.05
2018-02-16T04:22:04.357Z,2.03
2018-02-16T04:24:33.489Z,1.98
2018-02-16T04:27:05.119Z,1.95
2018-02-16T04:29:34.105Z,1.95
2018-02-16T04:32:04.355Z,1.96
2018-02-16T04:34:35.136Z,1.95
2018-02-16T04:37:04.169Z,1.93
2018-02-16T04:39:34.390Z,1.92
2018-02-16T04:42:04.699Z,1.94
2018-02-16T04:44:33.793Z,1.90
2018-02-16T04:47:02.692Z,1.91
2018-02-16T04:49:31.773Z,1.90
2018-02-16T04:52:00.788Z,1.90
2018-02-16T04:54:31.515Z,1.87
2018-02-16T04:57:00.722Z,1.90
2018-02-16T04:59:29.689Z,1.88
2018-02-16T05:01:58.799Z,1.90
2018-02-16T05:04:28.149Z,1.90
2018-02-16T05:06:57.102Z,1.95
2018-02-16T05:09:26.197Z,1.89
2018-02-16T05:11:56.367Z,1.91
2018-02-16T05:14:25.332Z,1.97
2018-02-16T05:16:54.392Z,1.96
2018-02-16T05:19:23.782Z,1.95
2018-02-16T05:21:52.670Z,1.96
2018-02-16T05:24:21.637Z,1.96
2018-02-16T05:26:50.907Z,1.99
2018-02-16T05:29:20.204Z,2.00
2018-02-16T05:31:49.188Z,2.06
2018-02-16T05:34:19.283Z,2.09
2018-02-16T05:36:48.232Z,2.13
2018-02-16T05:39:17.299Z,2.27
2018-02-16T05:41:47.280Z,2.35
2018-02-16T05:44:16.245Z,2.48
2018-02-16T05:46:45.815Z,2.41
2018-02-16T05:49:15.019Z,2.42
2018-02-16T05:51:43.903Z,2.48
2018-02-16T05:54:13.004Z,2.53
2018-02-16T05:56:42.207Z,2.53
2018-02-16T05:59:12.016Z,2.56
2018-02-16T06:01:41.825Z,2.69
2018-02-16T06:04:10.957Z,2.79
2018-02-16T06:06:40.719Z,2.74
2018-02-16T06:09:09.943Z,2.75
2018-02-16T06:11:40.604Z,2.82
2018-02-16T06:14:10.682Z,3.11
2018-02-16T06:16:39.684Z,3.32
2018-02-16T06:19:10.577Z,3.40
2018-02-16T06:21:40.233Z,3.48
2018-02-16T06:24:09.512Z,3.42
2018-02-16T06:26:39.039Z,3.36
2018-02-16T06:29:08.231Z,3.46
2018-02-16T06:31:38.184Z,3.43
2018-02-16T06:34:10.194Z,3.56
2018-02-16T06:36:39.379Z,3.67
2018-02-16T06:39:09.223Z,3.52
2018-02-16T06:41:38.419Z,3.43
2018-02-16T06:44:07.621Z,3.32
2018-02-16T06:46:38.292Z,3.33
2018-02-16T06:49:08.587Z,3.31
2018-02-16T06:51:38.427Z,3.26
2018-02-16T06:54:10.155Z,3.24
2018-02-16T06:56:39.253Z,3.23
2018-02-16T06:59:08.302Z,3.19
2018-02-16T07:01:37.677Z,3.15
2018-02-16T07:04:06.749Z,3.24
2018-02-16T07:06:36.717Z,3.30
2018-02-16T07:09:06.762Z,3.32
2018-02-16T07:11:35.872Z,3.30
2018-02-16T07:14:04.940Z,3.28
2018-02-16T07:16:35.690Z,3.27
2018-02-16T07:19:04.701Z,3.24
2018-02-16T07:21:33.694Z,3.32
2018-02-16T07:24:03.783Z,3.33
2018-02-16T07:26:32.856Z,3.48
2018-02-16T07:29:01.800Z,3.51
2018-02-16T07:31:33.932Z,3.51
2018-02-16T07:34:02.777Z,3.70
2018-02-16T07:36:31.647Z,3.75
2018-02-16T07:39:02.386Z,3.83
2018-02-16T07:41:32.294Z,3.94
2018-02-16T07:44:01.276Z,4.03
2018-02-16T07:46:30.697Z,4.07
2018-02-16T07:48:59.726Z,4.11
2018-02-16T07:51:29.244Z,4.04
2018-02-16T07:53:58.390Z,4.00
2018-02-16T07:56:28.304Z,4.01
2018-02-16T07:58:57.313Z,4.03
2018-02-16T08:01:27.323Z,4.28
2018-02-16T08:03:56.604Z,4.25
2018-02-16T08:06:28.308Z,4.34
2018-02-16T08:08:57.783Z,4.40
2018-02-16T08:11:26.881Z,4.42
2018-02-16T08:13:56.065Z,4.26
2018-02-16T08:16:25.273Z,4.40
2018-02-16T08:18:54.371Z,4.51
2018-02-16T08:21:27.880Z,4.57
2018-02-16T08:23:56.887Z,4.76
2018-02-16T08:26:26.265Z,4.95
2018-02-16T08:28:55.474Z,4.96
2018-02-16T08:31:25.388Z,5.03
2018-02-16T08:33:54.459Z,4.95
2018-02-16T08:36:24.239Z,5.03
2018-02-16T08:38:53.372Z,5.18
2018-02-16T08:41:24.740Z,5.27
2018-02-16T08:43:54.612Z,5.44
2018-02-16T08:46:24.129Z,5.57
2018-02-16T08:48:53.252Z,5.53
2018-02-16T08:51:25.736Z,5.61
2018-02-16T08:53:54.744Z,5.80
2018-02-16T08:56:23.768Z,5.79
2018-02-16T08:58:52.917Z,6.03
2018-02-16T09:01:22.090Z,6.09
2018-02-16T09:03:51.214Z,6.21
2018-02-16T09:06:21.892Z,6.36
2018-02-16T09:08:50.878Z,6.34
2018-02-16T09:11:20.002Z,6.45
2018-02-16T09:13:50.655Z,6.48
2018-02-16T09:16:20.384Z,6.63
2018-02-16T09:18:49.473Z,6.78
2018-02-16T09:21:19.595Z,6.90
2018-02-16T09:23:48.727Z,6.97
2018-02-16T09:26:17.790Z,7.00
2018-02-16T09:28:46.996Z,6.93
2018-02-16T09:31:16.294Z,6.89
2018-02-16T09:33:45.387Z,7.04
2018-02-16T09:36:16.845Z,7.07
2018-02-16T09:38:46.045Z,7.22
2018-02-16T09:41:15.134Z,7.28
2018-02-16T09:43:45.146Z,7.47
2018-02-16T09:46:14.861Z,7.41
2018-02-16T09:48:43.932Z,7.52
2018-02-16T09:51:13.067Z,7.63
2018-02-16T09:53:43.066Z,7.65
2018-02-16T09:56:16.625Z,7.53
2018-02-16T09:58:45.563Z,7.55
2018-02-16T10:01:14.661Z,7.62
2018-02-16T10:03:43.757Z,7.83
2018-02-16T10:06:12.701Z,7.95
2018-02-16T10:08:41.651Z,8.02
2018-02-16T10:11:11.307Z,8.07
2018-02-16T10:13:40.240Z,8.07
2018-02-16T10:16:09.547Z,8.22
2018-02-16T10:18:39.468Z,8.11
2018-02-16T10:21:08.663Z,8.03
2018-02-16T10:23:37.958Z,8.04
2018-02-16T10:26:07.741Z,8.02
2018-02-16T10:28:37.455Z,7.97
2018-02-16T10:31:08.322Z,8.10
2018-02-16T10:33:38.308Z,8.27
2018-02-16T10:36:07.332Z,8.21
2018-02-16T10:38:36.327Z,8.02
2018-02-16T10:41:05.639Z,8.16
2018-02-16T10:43:34.828Z,8.25
2018-02-16T10:46:04.717Z,8.27
2018-02-16T10:48:35.375Z,8.16
2018-02-16T10:51:05.318Z,8.19
2018-02-16T10:53:35.205Z,8.31
2018-02-16T10:56:04.408Z,8.23
2018-02-16T10:58:34.117Z,8.30
2018-02-16T11:01:08.583Z,8.26
2018-02-16T11:03:39.191Z,8.31
2018-02-16T11:06:13.222Z,8.39
2018-02-16T11:08:50.859Z,8.35
2018-02-16T11:11:20.628Z,8.40
2018-02-16T11:13:49.721Z,8.54
2018-02-16T11:16:19.437Z,8.63
2018-02-16T11:18:48.596Z,8.69
2018-02-16T11:21:17.586Z,8.62
2018-02-16T11:23:48.270Z,8.73
2018-02-16T11:26:17.315Z,8.83
2018-02-16T11:28:46.348Z,8.93
2018-02-16T11:31:15.311Z,8.96
2018-02-16T11:33:45.018Z,9.00
2018-02-16T11:36:14.012Z,9.04
2018-02-16T11:38:42.945Z,9.06
2018-02-16T11:41:11.978Z,9.17
2018-02-16T11:43:40.921Z,9.03
2018-02-16T11:46:10.028Z,9.08
2018-02-16T11:48:41.639Z,9.08
2018-02-16T11:51:10.739Z,9.10
2018-02-16T11:53:39.844Z,9.14
2018-02-16T11:56:11.283Z,9.17
2018-02-16T11:58:40.278Z,9.26
2018-02-16T12:01:09.272Z,9.27
2018-02-16T12:03:41.744Z,9.21
2018-02-16T12:06:10.650Z,9.30
2018-02-16T12:08:39.766Z,9.25
2018-02-16T12:11:08.839Z,9.13
2018-02-16T12:13:38.561Z,9.13
2018-02-16T12:16:07.762Z,9.21
2018-02-16T12:18:36.917Z,9.17
2018-02-16T12:21:05.994Z,9.22
2018-02-16T12:23:34.941Z,9.28
2018-02-16T12:26:04.743Z,9.31
2018-02-16T12:28:33.840Z,9.37
2018-02-16T12:31:03.688Z,9.39
2018-02-16T12:33:32.883Z,9.28
2018-02-16T12:36:02.122Z,9.39
2018-02-16T12:38:32.279Z,9.46
2018-02-16T12:43:36.507Z,9.43
2018-02-16T12:46:05.649Z,9.48
2018-02-16T12:48:35.627Z,9.22
2018-02-16T12:51:04.821Z,9.17
2018-02-16T12:53:33.913Z,8.94
2018-02-16T12:56:04.559Z,9.01
2018-02-16T12:58:33.542Z,9.18
2018-02-16T13:01:02.634Z,8.95
2018-02-16T13:03:31.906Z,8.20
2018-02-16T13:06:01.652Z,8.02
2018-02-16T13:08:30.742Z,7.97
2018-02-16T13:11:00.759Z,8.07
2018-02-16T13:13:29.964Z,7.83
2018-02-16T13:15:59.052Z,7.72
2018-02-16T13:18:28.254Z,7.64
2018-02-16T13:20:57.452Z,7.48
2018-02-16T13:23:26.551Z,7.35
2018-02-16T13:25:55.788Z,7.11
2018-02-16T13:28:24.849Z,7.06
2018-02-16T13:30:54.053Z,6.93
2018-02-16T13:33:25.597Z,6.83
2018-02-16T13:35:54.596Z,6.87
2018-02-16T13:38:23.998Z,6.90
2018-02-16T13:40:53.193Z,6.77
2018-02-16T13:43:22.315Z,6.68
2018-02-16T13:45:51.388Z,6.75
2018-02-16T13:48:22.252Z,6.90
2018-02-16T13:50:52.260Z,7.04
2018-02-16T13:53:21.924Z,7.22
2018-02-16T13:55:51.144Z,7.13
2018-02-16T13:58:21.115Z,6.93
2018-02-16T14:00:51.089Z,6.83
2018-02-16T14:03:21.952Z,7.05
2018-02-16T14:05:51.103Z,7.24
2018-02-16T14:08:20.112Z,7.42
2018-02-16T14:10:52.027Z,7.25
2018-02-16T14:13:20.966Z,7.35
2018-02-16T14:15:50.040Z,7.32
2018-02-16T14:18:19.168Z,7.13
2018-02-16T14:20:49.415Z,7.05
2018-02-16T14:23:18.487Z,6.97
2018-02-16T14:25:48.554Z,6.90
2018-02-16T14:28:17.638Z,6.73
2018-02-16T14:30:48.615Z,6.70
2018-02-16T14:33:18.347Z,6.71
2018-02-16T14:35:47.349Z,6.66
2018-02-16T14:38:16.460Z,6.62
2018-02-16T14:40:46.565Z,6.51
2018-02-16T14:43:16.984Z,6.43
2018-02-16T14:45:46.091Z,6.23
2018-02-16T14:48:15.398Z,6.23
2018-02-16T14:50:44.502Z,6.18
2018-02-16T14:53:13.470Z,6.29
2018-02-16T14:55:42.769Z,6.33
2018-02-16T14:58:11.768Z,6.22
2018-02-16T15:00:41.527Z,6.24
2018-02-16T15:03:10.721Z,6.12
2018-02-16T15:05:39.815Z,6.06
2018-02-16T15:08:08.913Z,6.15
2018-02-16T15:10:38.270Z,6.19
2018-02-16T15:13:07.262Z,6.18
2018-02-16T15:15:36.363Z,6.22
2018-02-16T15:18:07.181Z,6.21
2018-02-16T15:20:37.265Z,6.30
2018-02-16T15:23:06.260Z,6.19
2018-02-16T15:25:37.003Z,6.11
2018-02-16T15:28:06.040Z,6.02
2018-02-16T15:30:35.561Z,5.97
2018-02-16T15:33:06.093Z,5.98
2018-02-16T15:35:35.174Z,6.13
2018-02-16T15:38:04.243Z,6.20
2018-02-16T15:40:33.507Z,6.25
2018-02-16T15:43:03.675Z,6.24
2018-02-16T15:45:32.795Z,6.18
2018-02-16T15:48:01.989Z,6.06
2018-02-16T15:50:31.194Z,6.01
2018-02-16T15:53:00.316Z,6.02
2018-02-16T15:55:29.499Z,6.04
2018-02-16T15:57:58.759Z,5.82
2018-02-16T16:00:27.606Z,5.66
2018-02-16T16:02:59.292Z,5.80
2018-02-16T16:05:29.088Z,5.87
2018-02-16T16:07:57.980Z,5.89
2018-02-16T16:10:28.975Z,5.93
2018-02-16T16:12:59.091Z,5.99
2018-02-16T16:15:28.210Z,5.96
2018-02-16T16:18:00.357Z,5.86
2018-02-16T16:20:30.749Z,5.91
2018-02-16T16:22:59.781Z,5.77
2018-02-16T16:25:29.000Z,5.53
2018-02-16T16:27:58.121Z,5.53
2018-02-16T16:30:27.237Z,5.44
2018-02-16T16:32:56.319Z,5.30
2018-02-16T16:35:25.504Z,5.40
2018-02-16T16:37:55.328Z,5.54
2018-02-16T16:40:24.488Z,5.54
2018-02-16T16:42:53.618Z,5.49
2018-02-16T16:45:22.714Z,5.51
2018-02-16T16:47:52.596Z,5.59
2018-02-16T16:50:26.401Z,5.66
2018-02-16T16:52:57.531Z,5.75
2018-02-16T16:55:26.725Z,5.80
2018-02-16T16:57:55.783Z,5.86
2018-02-16T17:00:25.030Z,5.87
2018-02-16T17:02:54.122Z,5.63
2018-02-16T17:05:23.413Z,5.44
2018-02-16T17:07:53.279Z,5.34
2018-02-16T17:10:22.228Z,5.31
2018-02-16T17:12:51.341Z,5.42
2018-02-16T17:15:20.793Z,5.37
2018-02-16T17:17:49.887Z,5.47
2018-02-16T17:20:18.877Z,5.53
2018-02-16T17:22:52.478Z,5.52
2018-02-16T17:25:21.944Z,5.38
2018-02-16T17:27:51.137Z,5.44
2018-02-16T17:30:20.403Z,5.52
2018-02-16T17:32:49.593Z,5.52
2018-02-16T17:35:18.729Z,5.56
2018-02-16T17:37:51.534Z,5.64
2018-02-16T17:40:20.797Z,5.66
2018-02-16T17:42:50.168Z,5.54
2018-02-16T17:45:19.260Z,5.48
2018-02-16T17:47:48.353Z,5.39
2018-02-16T17:50:17.586Z,5.42
2018-02-16T17:52:47.947Z,5.38
2018-02-16T17:55:17.114Z,5.37
2018-02-16T17:57:46.214Z,5.42
2018-02-16T18:00:16.174Z,5.40
2018-02-16T18:02:45.224Z,5.33
2018-02-16T18:05:14.533Z,5.11
2018-02-16T18:07:43.633Z,4.96
2018-02-16T18:10:13.638Z,4.87
2018-02-16T18:12:42.858Z,4.84
2018-02-16T18:15:14.095Z,4.68
2018-02-16T18:17:43.494Z,4.59
2018-02-16T18:20:12.793Z,4.65
2018-02-16T18:22:42.868Z,4.62
2018-02-16T18:25:12.102Z,4.58
2018-02-16T18:27:41.512Z,4.56
2018-02-16T18:30:10.797Z,4.46
2018-02-16T18:32:40.223Z,4.48
2018-02-16T18:35:09.600Z,4.47
2018-02-16T18:37:39.787Z,4.48
2018-02-16T18:40:09.059Z,4.44
2018-02-16T18:42:39.542Z,4.37
2018-02-16T18:45:09.996Z,4.31
2018-02-16T18:47:39.296Z,4.29
2018-02-16T18:50:08.812Z,4.24
2018-02-16T18:52:38.223Z,4.23
2018-02-16T18:55:07.736Z,4.19
2018-02-16T18:57:37.126Z,4.13
2018-02-16T19:00:07.648Z,4.11
2018-02-16T19:02:38.549Z,4.05
2018-02-16T19:05:08.139Z,4.03
2018-02-16T19:07:37.562Z,3.99
2018-02-16T19:10:08.383Z,4.08
2018-02-16T19:12:37.602Z,4.10
2018-02-16T19:15:07.099Z,4.10
2018-02-16T19:17:36.615Z,4.14
2018-02-16T19:20:06.043Z,4.15
2018-02-16T19:22:36.346Z,4.16
2018-02-16T19:25:05.740Z,4.16
2018-02-16T19:27:35.988Z,4.18
2018-02-16T19:30:09.536Z,4.15
2018-02-16T19:32:43.216Z,4.11
2018-02-16T19:35:14.830Z,4.09
2018-02-16T19:37:44.225Z,4.08
2018-02-16T19:40:13.226Z,4.01
2018-02-16T19:42:44.228Z,4.03
2018-02-16T19:45:14.248Z,4.02
2018-02-16T19:47:43.680Z,4.05
2018-02-16T19:50:12.793Z,4.02
2018-02-16T19:52:41.811Z,4.01
2018-02-16T19:55:12.804Z,3.97
2018-02-16T19:57:44.267Z,3.92
2018-02-16T20:00:14.321Z,3.93
2018-02-16T20:02:43.749Z,3.91
2018-02-16T20:05:13.007Z,3.85
2018-02-16T20:07:43.015Z,3.87
2018-02-16T20:10:12.499Z,3.85
2018-02-16T20:12:41.861Z,3.79
2018-02-16T20:15:13.918Z,3.73
2018-02-16T20:17:47.178Z,3.69
2018-02-16T20:20:16.516Z,3.69
2018-02-16T20:22:45.720Z,3.67
2018-02-16T20:25:18.491Z,3.68
2018-02-16T20:27:47.659Z,3.67
2018-02-16T20:30:16.852Z,3.58
2018-02-16T20:32:47.663Z,3.51
2018-02-16T20:35:16.899Z,3.46
2018-02-16T20:37:46.158Z,3.42
2018-02-16T20:40:15.381Z,3.45
2018-02-16T20:42:44.384Z,3.49
2018-02-16T20:45:13.588Z,3.46
2018-02-16T20:47:44.424Z,3.49
2018-02-16T20:50:13.562Z,3.48
2018-02-16T20:52:42.865Z,3.46
2018-02-16T20:55:12.070Z,3.47
2018-02-16T20:57:41.534Z,3.47
2018-02-16T21:00:10.406Z,3.45
2018-02-16T21:02:39.323Z,3.49
2018-02-16T21:05:09.068Z,3.50
2018-02-16T21:07:37.957Z,3.41
2018-02-16T21:10:09.531Z,3.42
2018-02-16T21:12:38.603Z,3.39
2018-02-16T21:15:12.813Z,3.36
2018-02-16T21:17:43.419Z,3.28
2018-02-16T21:20:12.538Z,3.25
2018-02-16T21:22:43.030Z,3.20
2018-02-16T21:25:12.153Z,3.16
2018-02-16T21:27:41.006Z,3.20
2018-02-16T21:30:10.161Z,3.10
2018-02-16T21:32:39.032Z,3.05
2018-02-16T21:35:07.979Z,3.03
2018-02-16T21:37:38.540Z,3.02
2018-02-16T21:40:07.639Z,2.97
2018-02-16T21:42:36.503Z,3.02
2018-02-16T21:45:05.914Z,3.02
2018-02-16T21:47:34.882Z,2.99
2018-02-16T21:50:03.814Z,2.97
2018-02-16T21:52:37.315Z,2.97
2018-02-16T21:55:06.197Z,3.00
2018-02-16T21:57:35.144Z,2.98
2018-02-16T22:00:04.125Z,2.95
2018-02-16T22:02:32.978Z,2.98
2018-02-16T22:05:02.682Z,2.98
2018-02-16T22:07:33.623Z,3.03
2018-02-16T22:10:02.717Z,3.02
2018-02-16T22:12:32.569Z,3.03
2018-02-16T22:15:03.181Z,3.02
2018-02-16T22:17:33.430Z,2.95
2018-02-16T22:20:02.501Z,2.92
2018-02-16T22:22:33.053Z,2.93
2018-02-16T22:25:04.768Z,2.93
2018-02-16T22:27:34.925Z,2.89
2018-02-16T22:30:03.898Z,2.88
2018-02-16T22:32:33.100Z,2.83
2018-02-16T22:35:02.924Z,2.89
2018-02-16T22:37:32.756Z,2.92
2018-02-16T22:40:01.736Z,2.93
2018-02-16T22:42:30.897Z,2.94
2018-02-16T22:44:59.995Z,2.96
2018-02-16T22:47:28.987Z,2.98
2018-02-16T22:50:01.572Z,2.99
2018-02-16T22:52:30.707Z,3.01
2018-02-16T22:54:59.656Z,3.03
2018-02-16T22:57:28.893Z,3.05
2018-02-16T22:59:58.463Z,3.06
2018-02-16T23:02:27.572Z,3.02
2018-02-16T23:04:57.880Z,3.01
2018-02-16T23:07:27.009Z,3.01
2018-02-16T23:09:56.612Z,3.05
2018-02-16T23:12:26.502Z,3.03
2018-02-16T23:14:57.034Z,3.04
2018-02-16T23:17:26.063Z,3.08
2018-02-16T23:19:56.692Z,3.10
2018-02-16T23:22:25.916Z,3.13
2018-02-16T23:24:55.041Z,3.17
2018-02-16T23:27:28.254Z,3.21
2018-02-16T23:29:57.239Z,3.28
2018-02-16T23:32:26.263Z,3.27
2018-02-16T23:34:55.301Z,3.25
2018-02-16T23:37:24.523Z,3.12
2018-02-16T23:39:53.620Z,3.14
2018-02-16T23:42:27.284Z,3.14
2018-02-16T23:44:59.855Z,3.13
2018-02-16T23:47:29.921Z,3.07
2018-02-16T23:49:59.715Z,3.03
2018-02-16T23:52:28.851Z,2.97
2018-02-16T23:54:57.942Z,2.99
2018-02-16T23:57:27.020Z,2.95
2018-02-16T23:59:56.107Z,2.96
